sensor_id;sensor_type;location;lat;lon;timestamp;pressure;altitude;pressure_sealevel;temperature;humidity
61359;BME280;47228;46.762;23.598;2022-12-18T00:00:04;98215.55;;;-0.57;85.91
61359;BME280;47228;46.762;23.598;2022-12-18T00:02:33;98219.52;;;-0.59;85.80
61359;BME280;47228;46.762;23.598;2022-12-18T00:05:01;98217.46;;;-0.62;85.89
61359;BME280;47228;46.762;23.598;2022-12-18T00:07:29;98221.60;;;-0.61;86.01
61359;BME280;47228;46.762;23.598;2022-12-18T00:09:56;98226.98;;;-0.61;85.79
61359;BME280;47228;46.762;23.598;2022-12-18T00:12:24;98232.38;;;-0.61;86.06
61359;BME280;47228;46.762;23.598;2022-12-18T00:14:52;98238.55;;;-0.62;85.90
61359;BME280;47228;46.762;23.598;2022-12-18T00:17:20;98242.49;;;-0.61;86.27
61359;BME280;47228;46.762;23.598;2022-12-18T00:19:48;98248.39;;;-0.61;86.08
61359;BME280;47228;46.762;23.598;2022-12-18T00:22:18;98253.64;;;-0.61;86.00
61359;BME280;47228;46.762;23.598;2022-12-18T00:24:46;98257.54;;;-0.62;86.04
61359;BME280;47228;46.762;23.598;2022-12-18T00:27:14;98257.13;;;-0.64;85.96
61359;BME280;47228;46.762;23.598;2022-12-18T00:29:42;98263.63;;;-0.65;86.01
61359;BME280;47228;46.762;23.598;2022-12-18T00:32:10;98261.56;;;-0.68;85.73
61359;BME280;47228;46.762;23.598;2022-12-18T00:34:37;98261.13;;;-0.69;86.00
61359;BME280;47228;46.762;23.598;2022-12-18T00:37:05;98263.63;;;-0.70;86.06
61359;BME280;47228;46.762;23.598;2022-12-18T00:39:33;98264.36;;;-0.71;86.02
61359;BME280;47228;46.762;23.598;2022-12-18T00:42:01;98264.69;;;-0.73;85.82
61359;BME280;47228;46.762;23.598;2022-12-18T00:44:48;98270.53;;;-0.79;85.65
61359;BME280;47228;46.762;23.598;2022-12-18T00:47:16;98275.28;;;-0.87;85.85
61359;BME280;47228;46.762;23.598;2022-12-18T00:49:44;98281.78;;;-0.91;86.17
61359;BME280;47228;46.762;23.598;2022-12-18T00:52:12;98281.14;;;-0.92;86.42
61359;BME280;47228;46.762;23.598;2022-12-18T00:54:39;98283.77;;;-0.93;86.51
61359;BME280;47228;46.762;23.598;2022-12-18T00:57:07;98284.61;;;-0.95;86.58
61359;BME280;47228;46.762;23.598;2022-12-18T00:59:35;98285.52;;;-0.95;86.53
61359;BME280;47228;46.762;23.598;2022-12-18T01:02:03;98284.77;;;-0.94;86.58
61359;BME280;47228;46.762;23.598;2022-12-18T01:04:32;98287.44;;;-0.93;86.73
61359;BME280;47228;46.762;23.598;2022-12-18T01:07:00;98290.46;;;-0.88;86.83
61359;BME280;47228;46.762;23.598;2022-12-18T01:09:28;98291.72;;;-0.84;87.09
61359;BME280;47228;46.762;23.598;2022-12-18T01:11:56;98292.41;;;-0.81;86.79
61359;BME280;47228;46.762;23.598;2022-12-18T01:14:25;98294.06;;;-0.77;87.00
61359;BME280;47228;46.762;23.598;2022-12-18T01:16:53;98293.01;;;-0.72;86.92
61359;BME280;47228;46.762;23.598;2022-12-18T01:19:21;98289.43;;;-0.69;86.80
61359;BME280;47228;46.762;23.598;2022-12-18T01:21:49;98288.60;;;-0.67;86.47
61359;BME280;47228;46.762;23.598;2022-12-18T01:24:17;98287.02;;;-0.66;86.75
61359;BME280;47228;46.762;23.598;2022-12-18T01:26:45;98288.63;;;-0.64;86.70
61359;BME280;47228;46.762;23.598;2022-12-18T01:29:13;98287.64;;;-0.62;86.55
61359;BME280;47228;46.762;23.598;2022-12-18T01:31:41;98288.80;;;-0.62;86.44
61359;BME280;47228;46.762;23.598;2022-12-18T01:34:09;98291.86;;;-0.60;86.23
61359;BME280;47228;46.762;23.598;2022-12-18T01:36:38;98295.85;;;-0.60;86.24
61359;BME280;47228;46.762;23.598;2022-12-18T01:39:14;98296.05;;;-0.61;86.21
61359;BME280;47228;46.762;23.598;2022-12-18T01:41:42;98295.91;;;-0.61;86.05
61359;BME280;47228;46.762;23.598;2022-12-18T01:48:03;98293.62;;;-0.61;85.84
61359;BME280;47228;46.762;23.598;2022-12-18T01:50:37;98295.25;;;-0.60;85.65
61359;BME280;47228;46.762;23.598;2022-12-18T01:53:09;98293.88;;;-0.60;85.91
61359;BME280;47228;46.762;23.598;2022-12-18T01:55:43;98297.48;;;-0.59;86.04
61359;BME280;47228;46.762;23.598;2022-12-18T01:58:15;98301.92;;;-0.58;86.21
61359;BME280;47228;46.762;23.598;2022-12-18T02:00:44;98300.90;;;-0.56;86.27
61359;BME280;47228;46.762;23.598;2022-12-18T02:03:12;98301.33;;;-0.52;86.34
61359;BME280;47228;46.762;23.598;2022-12-18T02:08:54;98309.67;;;-0.44;86.22
61359;BME280;47228;46.762;23.598;2022-12-18T02:11:34;98311.61;;;-0.42;86.33
61359;BME280;47228;46.762;23.598;2022-12-18T02:14:28;98312.14;;;-0.45;85.84
61359;BME280;47228;46.762;23.598;2022-12-18T02:17:09;98313.63;;;-0.49;85.82
61359;BME280;47228;46.762;23.598;2022-12-18T02:19:55;98318.98;;;-0.51;85.89
61359;BME280;47228;46.762;23.598;2022-12-18T02:27:35;98335.33;;;-0.50;86.13
61359;BME280;47228;46.762;23.598;2022-12-18T02:30:06;98336.27;;;-0.54;85.78
61359;BME280;47228;46.762;23.598;2022-12-18T02:32:40;98337.77;;;-0.60;85.63
61359;BME280;47228;46.762;23.598;2022-12-18T02:35:15;98339.06;;;-0.64;85.63
61359;BME280;47228;46.762;23.598;2022-12-18T02:37:45;98339.96;;;-0.64;85.73
61359;BME280;47228;46.762;23.598;2022-12-18T02:40:16;98341.34;;;-0.67;85.74
61359;BME280;47228;46.762;23.598;2022-12-18T02:42:44;98345.83;;;-0.69;85.88
61359;BME280;47228;46.762;23.598;2022-12-18T02:45:13;98354.08;;;-0.67;86.26
61359;BME280;47228;46.762;23.598;2022-12-18T02:47:44;98356.04;;;-0.65;86.46
61359;BME280;47228;46.762;23.598;2022-12-18T02:50:22;98361.00;;;-0.62;86.63
61359;BME280;47228;46.762;23.598;2022-12-18T02:58:36;98379.08;;;-0.52;86.18
61359;BME280;47228;46.762;23.598;2022-12-18T03:01:24;98386.49;;;-0.53;85.72
61359;BME280;47228;46.762;23.598;2022-12-18T03:04:20;98392.73;;;-0.55;85.69
61359;BME280;47228;46.762;23.598;2022-12-18T03:06:55;98396.39;;;-0.55;85.81
61359;BME280;47228;46.762;23.598;2022-12-18T03:09:36;98402.48;;;-0.53;86.12
61359;BME280;47228;46.762;23.598;2022-12-18T03:12:13;98406.48;;;-0.50;85.73
61359;BME280;47228;46.762;23.598;2022-12-18T03:17:31;98412.56;;;-0.47;85.08
61359;BME280;47228;46.762;23.598;2022-12-18T03:20:08;98419.44;;;-0.49;84.58
61359;BME280;47228;46.762;23.598;2022-12-18T03:22:38;98421.02;;;-0.54;84.19
61359;BME280;47228;46.762;23.598;2022-12-18T03:25:11;98422.65;;;-0.60;83.86
61359;BME280;47228;46.762;23.598;2022-12-18T03:27:46;98426.59;;;-0.65;83.82
61359;BME280;47228;46.762;23.598;2022-12-18T03:30:16;98428.04;;;-0.71;83.71
61359;BME280;47228;46.762;23.598;2022-12-18T03:33:02;98434.39;;;-0.74;83.75
61359;BME280;47228;46.762;23.598;2022-12-18T03:35:38;98444.69;;;-0.77;83.92
61359;BME280;47228;46.762;23.598;2022-12-18T03:38:07;98448.44;;;-0.81;83.69
61359;BME280;47228;46.762;23.598;2022-12-18T03:40:44;98454.23;;;-0.85;83.72
61359;BME280;47228;46.762;23.598;2022-12-18T03:46:52;98462.89;;;-0.93;84.29
61359;BME280;47228;46.762;23.598;2022-12-18T03:49:25;98469.11;;;-0.92;84.16
61359;BME280;47228;46.762;23.598;2022-12-18T03:52:06;98475.86;;;-0.94;84.02
61359;BME280;47228;46.762;23.598;2022-12-18T03:54:38;98481.04;;;-0.93;84.23
61359;BME280;47228;46.762;23.598;2022-12-18T03:57:13;98485.89;;;-0.93;83.94
61359;BME280;47228;46.762;23.598;2022-12-18T03:59:44;98484.77;;;-0.97;83.78
61359;BME280;47228;46.762;23.598;2022-12-18T04:02:15;98486.34;;;-0.97;84.27
61359;BME280;47228;46.762;23.598;2022-12-18T04:04:45;98488.94;;;-0.97;84.11
61359;BME280;47228;46.762;23.598;2022-12-18T04:07:15;98491.00;;;-0.99;83.98
61359;BME280;47228;46.762;23.598;2022-12-18T04:09:44;98491.91;;;-1.02;83.90
61359;BME280;47228;46.762;23.598;2022-12-18T04:12:13;98494.35;;;-1.06;83.66
61359;BME280;47228;46.762;23.598;2022-12-18T04:14:41;98500.33;;;-1.07;83.86
61359;BME280;47228;46.762;23.598;2022-12-18T04:17:09;98507.68;;;-1.05;83.94
61359;BME280;47228;46.762;23.598;2022-12-18T04:19:37;98509.90;;;-1.07;83.69
61359;BME280;47228;46.762;23.598;2022-12-18T04:22:04;98511.67;;;-1.10;83.62
61359;BME280;47228;46.762;23.598;2022-12-18T04:24:32;98516.95;;;-1.11;83.81
61359;BME280;47228;46.762;23.598;2022-12-18T04:27:00;98522.25;;;-1.09;84.00
61359;BME280;47228;46.762;23.598;2022-12-18T04:29:28;98529.61;;;-1.05;84.26
61359;BME280;47228;46.762;23.598;2022-12-18T04:31:56;98531.19;;;-1.00;84.24
61359;BME280;47228;46.762;23.598;2022-12-18T04:34:24;98531.91;;;-1.00;83.73
61359;BME280;47228;46.762;23.598;2022-12-18T04:36:52;98532.84;;;-1.04;83.52
61359;BME280;47228;46.762;23.598;2022-12-18T04:39:20;98534.77;;;-1.04;83.65
61359;BME280;47228;46.762;23.598;2022-12-18T04:41:48;98537.98;;;-1.02;83.79
61359;BME280;47228;46.762;23.598;2022-12-18T04:44:16;98539.02;;;-1.00;83.79
61359;BME280;47228;46.762;23.598;2022-12-18T04:46:44;98538.52;;;-0.98;83.56
61359;BME280;47228;46.762;23.598;2022-12-18T04:49:12;98541.09;;;-0.99;83.16
61359;BME280;47228;46.762;23.598;2022-12-18T04:51:40;98540.52;;;-1.01;83.44
61359;BME280;47228;46.762;23.598;2022-12-18T04:54:08;98546.67;;;-1.00;83.43
61359;BME280;47228;46.762;23.598;2022-12-18T04:56:35;98545.77;;;-0.97;83.72
61359;BME280;47228;46.762;23.598;2022-12-18T04:59:03;98550.89;;;-0.90;84.07
61359;BME280;47228;46.762;23.598;2022-12-18T05:01:33;98554.84;;;-0.84;84.04
61359;BME280;47228;46.762;23.598;2022-12-18T05:04:02;98564.18;;;-0.80;83.56
61359;BME280;47228;46.762;23.598;2022-12-18T05:06:30;98567.07;;;-0.79;83.34
61359;BME280;47228;46.762;23.598;2022-12-18T05:08:58;98565.81;;;-0.79;83.41
61359;BME280;47228;46.762;23.598;2022-12-18T05:11:26;98567.89;;;-0.78;83.32
61359;BME280;47228;46.762;23.598;2022-12-18T05:13:54;98564.61;;;-0.79;83.32
61359;BME280;47228;46.762;23.598;2022-12-18T05:16:25;98566.95;;;-0.77;83.30
61359;BME280;47228;46.762;23.598;2022-12-18T05:18:53;98573.86;;;-0.76;83.33
61359;BME280;47228;46.762;23.598;2022-12-18T05:21:21;98580.21;;;-0.75;83.21
61359;BME280;47228;46.762;23.598;2022-12-18T05:23:48;98582.79;;;-0.75;83.27
61359;BME280;47228;46.762;23.598;2022-12-18T05:26:17;98589.39;;;-0.75;83.22
61359;BME280;47228;46.762;23.598;2022-12-18T05:28:46;98595.17;;;-0.75;82.88
61359;BME280;47228;46.762;23.598;2022-12-18T05:31:14;98594.77;;;-0.77;82.50
61359;BME280;47228;46.762;23.598;2022-12-18T05:33:43;98596.51;;;-0.77;82.95
61359;BME280;47228;46.762;23.598;2022-12-18T05:36:11;98604.40;;;-0.75;82.93
61359;BME280;47228;46.762;23.598;2022-12-18T05:38:39;98603.33;;;-0.75;82.80
61359;BME280;47228;46.762;23.598;2022-12-18T05:41:08;98605.09;;;-0.75;82.52
61359;BME280;47228;46.762;23.598;2022-12-18T05:43:38;98607.57;;;-0.79;82.22
61359;BME280;47228;46.762;23.598;2022-12-18T05:46:11;98613.91;;;-0.83;82.18
61359;BME280;47228;46.762;23.598;2022-12-18T05:48:40;98623.11;;;-0.85;82.13
61359;BME280;47228;46.762;23.598;2022-12-18T05:51:10;98630.32;;;-0.86;82.41
61359;BME280;47228;46.762;23.598;2022-12-18T05:53:39;98635.12;;;-0.88;82.59
61359;BME280;47228;46.762;23.598;2022-12-18T05:56:14;98640.45;;;-0.87;82.97
61359;BME280;47228;46.762;23.598;2022-12-18T05:58:43;98636.74;;;-0.86;83.12
61359;BME280;47228;46.762;23.598;2022-12-18T06:01:14;98640.51;;;-0.85;83.00
61359;BME280;47228;46.762;23.598;2022-12-18T06:03:43;98642.81;;;-0.86;82.54
61359;BME280;47228;46.762;23.598;2022-12-18T06:06:15;98647.02;;;-0.89;82.46
61359;BME280;47228;46.762;23.598;2022-12-18T06:08:44;98651.01;;;-0.92;82.55
61359;BME280;47228;46.762;23.598;2022-12-18T06:11:17;98656.21;;;-0.94;82.30
61359;BME280;47228;46.762;23.598;2022-12-18T06:13:46;98664.45;;;-0.98;82.02
61359;BME280;47228;46.762;23.598;2022-12-18T06:16:24;98665.13;;;-1.03;81.98
61359;BME280;47228;46.762;23.598;2022-12-18T06:18:52;98668.47;;;-1.07;81.95
61359;BME280;47228;46.762;23.598;2022-12-18T06:21:20;98673.45;;;-1.09;82.06
61359;BME280;47228;46.762;23.598;2022-12-18T06:23:48;98681.34;;;-1.10;82.18
61359;BME280;47228;46.762;23.598;2022-12-18T06:26:16;98691.17;;;-1.11;82.45
61359;BME280;47228;46.762;23.598;2022-12-18T06:28:44;98693.75;;;-1.13;82.19
61359;BME280;47228;46.762;23.598;2022-12-18T06:31:12;98693.94;;;-1.17;82.17
61359;BME280;47228;46.762;23.598;2022-12-18T06:33:40;98695.23;;;-1.18;82.12
61359;BME280;47228;46.762;23.598;2022-12-18T06:36:12;98698.55;;;-1.21;82.13
61359;BME280;47228;46.762;23.598;2022-12-18T06:38:41;98705.66;;;-1.24;82.28
61359;BME280;47228;46.762;23.598;2022-12-18T06:41:18;98714.77;;;-1.25;82.38
61359;BME280;47228;46.762;23.598;2022-12-18T06:43:46;98719.52;;;-1.29;82.30
61359;BME280;47228;46.762;23.598;2022-12-18T06:46:14;98727.08;;;-1.30;82.41
61359;BME280;47228;46.762;23.598;2022-12-18T06:48:42;98732.86;;;-1.31;82.44
61359;BME280;47228;46.762;23.598;2022-12-18T06:51:10;98740.02;;;-1.28;82.75
61359;BME280;47228;46.762;23.598;2022-12-18T06:53:43;98744.80;;;-1.24;82.72
61359;BME280;47228;46.762;23.598;2022-12-18T06:56:11;98744.09;;;-1.21;82.89
61359;BME280;47228;46.762;23.598;2022-12-18T06:58:40;98745.41;;;-1.17;82.95
61359;BME280;47228;46.762;23.598;2022-12-18T07:01:11;98749.77;;;-1.14;82.78
61359;BME280;47228;46.762;23.598;2022-12-18T07:03:41;98748.91;;;-1.11;82.70
61359;BME280;47228;46.762;23.598;2022-12-18T07:06:15;98754.02;;;-1.10;82.39
61359;BME280;47228;46.762;23.598;2022-12-18T07:08:44;98756.67;;;-1.11;82.23
61359;BME280;47228;46.762;23.598;2022-12-18T07:11:13;98763.16;;;-1.11;82.21
61359;BME280;47228;46.762;23.598;2022-12-18T07:13:43;98768.11;;;-1.16;81.53
61359;BME280;47228;46.762;23.598;2022-12-18T07:16:14;98772.35;;;-1.20;81.55
61359;BME280;47228;46.762;23.598;2022-12-18T07:18:53;98778.61;;;-1.23;81.68
61359;BME280;47228;46.762;23.598;2022-12-18T07:21:24;98778.40;;;-1.28;81.59
61359;BME280;47228;46.762;23.598;2022-12-18T07:23:53;98777.34;;;-1.31;81.92
61359;BME280;47228;46.762;23.598;2022-12-18T07:26:22;98780.23;;;-1.30;82.27
61359;BME280;47228;46.762;23.598;2022-12-18T07:28:50;98785.59;;;-1.29;82.07
61359;BME280;47228;46.762;23.598;2022-12-18T07:31:21;98787.80;;;-1.28;81.88
61359;BME280;47228;46.762;23.598;2022-12-18T07:33:50;98789.48;;;-1.27;81.57
61359;BME280;47228;46.762;23.598;2022-12-18T07:36:24;98796.31;;;-1.25;81.63
61359;BME280;47228;46.762;23.598;2022-12-18T07:38:52;98799.09;;;-1.22;81.42
61359;BME280;47228;46.762;23.598;2022-12-18T07:41:21;98800.64;;;-1.22;80.82
61359;BME280;47228;46.762;23.598;2022-12-18T07:43:51;98802.14;;;-1.21;80.38
61359;BME280;47228;46.762;23.598;2022-12-18T07:46:19;98805.94;;;-1.24;79.93
61359;BME280;47228;46.762;23.598;2022-12-18T07:48:47;98812.73;;;-1.23;80.05
61359;BME280;47228;46.762;23.598;2022-12-18T07:51:18;98815.73;;;-1.25;79.59
61359;BME280;47228;46.762;23.598;2022-12-18T07:53:46;98817.27;;;-1.27;79.80
61359;BME280;47228;46.762;23.598;2022-12-18T07:56:19;98815.20;;;-1.30;79.63
61359;BME280;47228;46.762;23.598;2022-12-18T07:58:58;98821.79;;;-1.30;79.97
61359;BME280;47228;46.762;23.598;2022-12-18T08:01:27;98828.39;;;-1.30;79.71
61359;BME280;47228;46.762;23.598;2022-12-18T08:03:57;98831.89;;;-1.27;79.69
61359;BME280;47228;46.762;23.598;2022-12-18T08:06:26;98831.30;;;-1.26;79.08
61359;BME280;47228;46.762;23.598;2022-12-18T08:08:55;98834.94;;;-1.26;79.39
61359;BME280;47228;46.762;23.598;2022-12-18T08:11:25;98837.32;;;-1.22;79.77
61359;BME280;47228;46.762;23.598;2022-12-18T08:13:55;98841.77;;;-1.21;79.38
61359;BME280;47228;46.762;23.598;2022-12-18T08:16:23;98845.23;;;-1.15;79.70
61359;BME280;47228;46.762;23.598;2022-12-18T08:18:52;98851.36;;;-1.09;79.01
61359;BME280;47228;46.762;23.598;2022-12-18T08:21:27;98861.08;;;-1.09;78.88
61359;BME280;47228;46.762;23.598;2022-12-18T08:23:58;98859.63;;;-1.08;78.93
61359;BME280;47228;46.762;23.598;2022-12-18T08:26:28;98860.58;;;-1.07;79.20
61359;BME280;47228;46.762;23.598;2022-12-18T08:28:58;98860.85;;;-1.05;79.13
61359;BME280;47228;46.762;23.598;2022-12-18T08:31:27;98862.24;;;-1.03;79.11
61359;BME280;47228;46.762;23.598;2022-12-18T08:33:56;98866.86;;;-0.98;78.99
61359;BME280;47228;46.762;23.598;2022-12-18T08:36:25;98873.04;;;-0.94;78.53
61359;BME280;47228;46.762;23.598;2022-12-18T08:38:54;98872.14;;;-0.94;77.48
61359;BME280;47228;46.762;23.598;2022-12-18T08:41:23;98873.39;;;-0.94;77.05
61359;BME280;47228;46.762;23.598;2022-12-18T08:43:51;98874.15;;;-0.98;76.32
61359;BME280;47228;46.762;23.598;2022-12-18T08:46:39;98875.87;;;-1.06;76.57
61359;BME280;47228;46.762;23.598;2022-12-18T08:49:09;98871.20;;;-1.10;76.68
61359;BME280;47228;46.762;23.598;2022-12-18T08:51:38;98866.77;;;-1.14;76.75
61359;BME280;47228;46.762;23.598;2022-12-18T08:54:12;98872.08;;;-1.16;76.37
61359;BME280;47228;46.762;23.598;2022-12-18T08:56:43;98872.72;;;-1.21;76.02
61359;BME280;47228;46.762;23.598;2022-12-18T08:59:11;98873.27;;;-1.21;76.69
61359;BME280;47228;46.762;23.598;2022-12-18T09:01:46;98879.80;;;-1.17;76.93
61359;BME280;47228;46.762;23.598;2022-12-18T09:04:15;98883.41;;;-1.13;76.96
61359;BME280;47228;46.762;23.598;2022-12-18T09:06:43;98883.48;;;-1.08;76.99
61359;BME280;47228;46.762;23.598;2022-12-18T09:09:11;98884.36;;;-1.03;76.99
61359;BME280;47228;46.762;23.598;2022-12-18T09:11:40;98884.03;;;-0.98;76.66
61359;BME280;47228;46.762;23.598;2022-12-18T09:14:09;98885.41;;;-0.91;76.62
61359;BME280;47228;46.762;23.598;2022-12-18T09:16:37;98886.38;;;-0.84;76.64
61359;BME280;47228;46.762;23.598;2022-12-18T09:19:05;98884.83;;;-0.82;75.69
61359;BME280;47228;46.762;23.598;2022-12-18T09:21:37;98889.65;;;-0.81;75.65
61359;BME280;47228;46.762;23.598;2022-12-18T09:24:14;98890.41;;;-0.79;75.96
61359;BME280;47228;46.762;23.598;2022-12-18T09:26:43;98894.15;;;-0.77;75.79
61359;BME280;47228;46.762;23.598;2022-12-18T09:29:15;98892.66;;;-0.75;75.52
61359;BME280;47228;46.762;23.598;2022-12-18T09:31:45;98894.56;;;-0.75;75.15
61359;BME280;47228;46.762;23.598;2022-12-18T09:34:14;98896.61;;;-0.74;75.38
61359;BME280;47228;46.762;23.598;2022-12-18T09:36:42;98901.38;;;-0.73;75.05
61359;BME280;47228;46.762;23.598;2022-12-18T09:39:10;98902.45;;;-0.70;75.32
61359;BME280;47228;46.762;23.598;2022-12-18T09:41:51;98901.55;;;-0.70;74.90
61359;BME280;47228;46.762;23.598;2022-12-18T09:47:03;98898.75;;;-0.76;74.83
61359;BME280;47228;46.762;23.598;2022-12-18T09:49:43;98896.68;;;-0.73;75.48
61359;BME280;47228;46.762;23.598;2022-12-18T09:52:15;98897.61;;;-0.68;75.39
61359;BME280;47228;46.762;23.598;2022-12-18T09:54:50;98901.60;;;-0.62;75.35
61359;BME280;47228;46.762;23.598;2022-12-18T09:57:22;98897.66;;;-0.55;75.30
61359;BME280;47228;46.762;23.598;2022-12-18T10:00:08;98896.09;;;-0.49;74.98
61359;BME280;47228;46.762;23.598;2022-12-18T10:02:39;98894.05;;;-0.44;73.84
61359;BME280;47228;46.762;23.598;2022-12-18T10:05:14;98894.54;;;-0.40;73.97
61359;BME280;47228;46.762;23.598;2022-12-18T10:08:11;98897.02;;;-0.35;73.97
61359;BME280;47228;46.762;23.598;2022-12-18T10:11:01;98899.12;;;-0.32;72.61
61359;BME280;47228;46.762;23.598;2022-12-18T10:13:39;98899.77;;;-0.40;71.74
61359;BME280;47228;46.762;23.598;2022-12-18T10:16:12;98903.95;;;-0.47;72.08
61359;BME280;47228;46.762;23.598;2022-12-18T10:24:48;98905.29;;;-0.69;72.23
61359;BME280;47228;46.762;23.598;2022-12-18T10:27:25;98908.77;;;-0.69;72.87
61359;BME280;47228;46.762;23.598;2022-12-18T10:29:54;98905.20;;;-0.67;72.49
61359;BME280;47228;46.762;23.598;2022-12-18T10:32:27;98902.77;;;-0.64;72.20
61359;BME280;47228;46.762;23.598;2022-12-18T10:34:57;98904.72;;;-0.65;71.54
61359;BME280;47228;46.762;23.598;2022-12-18T10:37:29;98908.23;;;-0.65;71.08
61359;BME280;47228;46.762;23.598;2022-12-18T10:40:15;98907.43;;;-0.67;71.48
61359;BME280;47228;46.762;23.598;2022-12-18T10:43:13;98903.52;;;-0.65;71.68
61359;BME280;47228;46.762;23.598;2022-12-18T10:46:12;98909.69;;;-0.63;71.28
61359;BME280;47228;46.762;23.598;2022-12-18T10:51:27;98913.42;;;-0.71;70.82
61359;BME280;47228;46.762;23.598;2022-12-18T10:54:21;98913.90;;;-0.76;70.91
61359;BME280;47228;46.762;23.598;2022-12-18T10:56:49;98917.48;;;-0.78;71.46
61359;BME280;47228;46.762;23.598;2022-12-18T10:59:18;98918.54;;;-0.78;71.35
61359;BME280;47228;46.762;23.598;2022-12-18T11:01:52;98917.48;;;-0.77;71.45
61359;BME280;47228;46.762;23.598;2022-12-18T11:04:28;98914.94;;;-0.76;71.74
61359;BME280;47228;46.762;23.598;2022-12-18T11:09:29;98918.30;;;-0.74;70.05
61359;BME280;47228;46.762;23.598;2022-12-18T11:12:02;98917.92;;;-0.79;69.91
61359;BME280;47228;46.762;23.598;2022-12-18T11:14:34;98919.98;;;-0.82;70.58
61359;BME280;47228;46.762;23.598;2022-12-18T11:17:25;98923.64;;;-0.79;70.90
61359;BME280;47228;46.762;23.598;2022-12-18T11:20:07;98924.42;;;-0.74;70.75
61359;BME280;47228;46.762;23.598;2022-12-18T11:23:11;98922.67;;;-0.71;70.83
61359;BME280;47228;46.762;23.598;2022-12-18T11:25:51;98921.09;;;-0.71;70.62
61359;BME280;47228;46.762;23.598;2022-12-18T11:28:33;98922.52;;;-0.72;70.43
61359;BME280;47228;46.762;23.598;2022-12-18T11:31:15;98920.63;;;-0.72;70.88
61359;BME280;47228;46.762;23.598;2022-12-18T11:33:52;98924.73;;;-0.68;71.19
61359;BME280;47228;46.762;23.598;2022-12-18T11:36:46;98926.45;;;-0.62;71.14
61359;BME280;47228;46.762;23.598;2022-12-18T11:39:23;98923.42;;;-0.55;71.24
61359;BME280;47228;46.762;23.598;2022-12-18T11:41:57;98924.23;;;-0.51;70.40
61359;BME280;47228;46.762;23.598;2022-12-18T11:44:52;98926.65;;;-0.51;69.35
61359;BME280;47228;46.762;23.598;2022-12-18T11:50:32;98927.92;;;-0.54;69.86
61359;BME280;47228;46.762;23.598;2022-12-18T11:53:02;98928.71;;;-0.56;69.08
61359;BME280;47228;46.762;23.598;2022-12-18T11:56:08;98931.23;;;-0.57;69.58
61359;BME280;47228;46.762;23.598;2022-12-18T11:58:46;98934.19;;;-0.57;69.53
61359;BME280;47228;46.762;23.598;2022-12-18T12:04:22;98933.05;;;-0.59;69.82
61359;BME280;47228;46.762;23.598;2022-12-18T12:07:09;98933.91;;;-0.55;70.01
61359;BME280;47228;46.762;23.598;2022-12-18T12:09:55;98933.62;;;-0.54;68.78
61359;BME280;47228;46.762;23.598;2022-12-18T12:26:57;98928.10;;;-0.23;69.94
61359;BME280;47228;46.762;23.598;2022-12-18T12:29:48;98932.92;;;-0.16;69.05
61359;BME280;47228;46.762;23.598;2022-12-18T12:40:47;98937.78;;;-0.19;68.47
61359;BME280;47228;46.762;23.598;2022-12-18T12:43:46;98940.64;;;-0.23;69.29
61359;BME280;47228;46.762;23.598;2022-12-18T12:46:20;98945.38;;;-0.23;69.45
61359;BME280;47228;46.762;23.598;2022-12-18T12:48:52;98946.55;;;-0.25;69.11
61359;BME280;47228;46.762;23.598;2022-12-18T12:51:31;98953.30;;;-0.28;68.93
61359;BME280;47228;46.762;23.598;2022-12-18T12:54:02;98959.18;;;-0.30;69.19
61359;BME280;47228;46.762;23.598;2022-12-18T13:05:00;98975.28;;;-0.37;69.14
61359;BME280;47228;46.762;23.598;2022-12-18T13:10:39;98974.08;;;-0.31;69.09
61359;BME280;47228;46.762;23.598;2022-12-18T13:13:17;98980.58;;;-0.30;69.31
61359;BME280;47228;46.762;23.598;2022-12-18T13:16:06;98983.77;;;-0.31;68.38
61359;BME280;47228;46.762;23.598;2022-12-18T13:18:35;98985.59;;;-0.35;68.22
61359;BME280;47228;46.762;23.598;2022-12-18T13:21:17;98987.73;;;-0.33;68.92
61359;BME280;47228;46.762;23.598;2022-12-18T13:23:51;98993.36;;;-0.28;68.94
61359;BME280;47228;46.762;23.598;2022-12-18T13:28:56;98998.42;;;-0.28;67.92
61359;BME280;47228;46.762;23.598;2022-12-18T13:34:21;98999.68;;;-0.32;67.70
61359;BME280;47228;46.762;23.598;2022-12-18T13:39:59;99000.86;;;-0.46;67.87
61359;BME280;47228;46.762;23.598;2022-12-18T13:42:38;99002.16;;;-0.50;68.51
61359;BME280;47228;46.762;23.598;2022-12-18T13:45:40;99003.05;;;-0.54;69.11
61359;BME280;47228;46.762;23.598;2022-12-18T13:48:14;99004.65;;;-0.54;69.41
61359;BME280;47228;46.762;23.598;2022-12-18T13:50:49;99001.77;;;-0.55;69.83
61359;BME280;47228;46.762;23.598;2022-12-18T13:53:27;98999.37;;;-0.56;69.95
61359;BME280;47228;46.762;23.598;2022-12-18T13:55:57;98998.02;;;-0.57;69.86
61359;BME280;47228;46.762;23.598;2022-12-18T13:58:25;98999.16;;;-0.55;70.11
61359;BME280;47228;46.762;23.598;2022-12-18T14:00:53;98997.41;;;-0.52;70.60
61359;BME280;47228;46.762;23.598;2022-12-18T14:03:24;99000.45;;;-0.50;70.68
61359;BME280;47228;46.762;23.598;2022-12-18T14:05:56;98998.92;;;-0.51;70.08
61359;BME280;47228;46.762;23.598;2022-12-18T14:08:32;98999.95;;;-0.57;70.03
61359;BME280;47228;46.762;23.598;2022-12-18T14:11:03;99000.50;;;-0.60;70.33
61359;BME280;47228;46.762;23.598;2022-12-18T14:13:37;99007.13;;;-0.64;70.53
61359;BME280;47228;46.762;23.598;2022-12-18T14:16:07;99012.09;;;-0.68;70.89
61359;BME280;47228;46.762;23.598;2022-12-18T14:18:55;99013.52;;;-0.72;71.03
61359;BME280;47228;46.762;23.598;2022-12-18T14:21:47;99014.98;;;-0.76;71.17
61359;BME280;47228;46.762;23.598;2022-12-18T14:24:20;99017.30;;;-0.80;71.03
61359;BME280;47228;46.762;23.598;2022-12-18T14:26:49;99019.41;;;-0.87;70.94
61359;BME280;47228;46.762;23.598;2022-12-18T14:32:04;99017.30;;;-0.95;71.41
61359;BME280;47228;46.762;23.598;2022-12-18T14:34:34;99026.46;;;-0.97;71.74
61359;BME280;47228;46.762;23.598;2022-12-18T14:37:02;99031.34;;;-1.01;71.73
61359;BME280;47228;46.762;23.598;2022-12-18T14:39:31;99032.41;;;-1.04;71.77
61359;BME280;47228;46.762;23.598;2022-12-18T14:41:58;99038.34;;;-1.07;71.96
61359;BME280;47228;46.762;23.598;2022-12-18T14:44:26;99045.60;;;-1.10;72.05
61359;BME280;47228;46.762;23.598;2022-12-18T14:47:14;99051.27;;;-1.12;72.17